Time;durP1;ratioP1;P1;durP2;ratioP2;P2;SDS_P1;SDS_P2;PMS_P1;PMS_P2;Temp;Humidity;BMP_temperature;BMP_pressure;BME280_temperature;BME280_humidity;BME280_pressure;Samples;Min_cycle;Max_cycle;Signal;HPM_P1;HPM_P2
2023/10/01 00:01:35;;;;;;;12.10;10.30;;;;;;;12.21;100.00;102329.38;5075293;28;20219;-86
2023/10/01 00:04:09;;;;;;;12.27;10.57;;;;;;;12.19;100.00;102335.69;5069582;28;20366;-85
2023/10/01 00:06:36;;;;;;;11.40;9.32;;;;;;;12.18;100.00;102331.34;5069496;28;20431;-86
2023/10/01 00:09:09;;;;;;;10.93;9.77;;;;;;;12.19;100.00;102341.81;5074238;28;20473;-86
2023/10/01 00:11:37;;;;;;;12.93;10.63;;;;;;;12.14;100.00;102343.03;5072389;28;20111;-86
2023/10/01 00:14:08;;;;;;;11.85;10.00;;;;;;;12.15;100.00;102339.44;5090732;28;20086;-86
2023/10/01 00:16:37;;;;;;;12.15;10.20;;;;;;;12.09;100.00;102334.50;5086596;28;20048;-86
2023/10/01 00:19:05;;;;;;;12.32;9.75;;;;;;;12.06;100.00;102335.53;5049538;28;20055;-86
2023/10/01 00:21:31;;;;;;;14.27;10.80;;;;;;;12.10;100.00;102341.50;5084405;28;20028;-85
2023/10/01 00:23:57;;;;;;;15.80;9.95;;;;;;;12.07;100.00;102342.53;5080012;28;20020;-85
2023/10/01 00:26:22;;;;;;;12.93;9.95;;;;;;;12.06;100.00;102338.19;5079874;28;20689;-87
2023/10/01 00:28:49;;;;;;;13.15;9.98;;;;;;;12.04;100.00;102347.97;5081039;28;20464;-86
2023/10/01 00:31:16;;;;;;;12.88;10.00;;;;;;;12.01;100.00;102347.25;5072088;28;20538;-85
2023/10/01 00:33:42;;;;;;;13.25;10.90;;;;;;;11.99;100.00;102333.31;5050635;28;20083;-85
2023/10/01 00:36:07;;;;;;;12.88;9.85;;;;;;;12.05;100.00;102333.00;5069609;28;20536;-86
2023/10/01 00:38:33;;;;;;;15.45;10.65;;;;;;;12.00;100.00;102333.22;5085415;28;20035;-86
2023/10/01 00:40:58;;;;;;;12.10;9.82;;;;;;;12.02;100.00;102327.88;5066533;28;20023;-86
2023/10/01 00:43:25;;;;;;;14.32;10.18;;;;;;;12.00;100.00;102335.00;5080064;28;20059;-86
2023/10/01 00:45:50;;;;;;;13.77;9.57;;;;;;;11.99;100.00;102331.53;5051256;28;20095;-87
2023/10/01 00:48:18;;;;;;;13.70;9.90;;;;;;;12.01;100.00;102329.69;5069284;28;20481;-86
2023/10/01 00:50:44;;;;;;;14.43;9.82;;;;;;;11.96;100.00;102318.50;5046618;28;20051;-86
2023/10/01 00:53:10;;;;;;;12.52;9.57;;;;;;;11.97;100.00;102314.09;5070409;28;20051;-88
2023/10/01 00:55:37;;;;;;;11.55;9.38;;;;;;;11.96;100.00;102307.09;5084866;28;20020;-86
2023/10/01 00:58:03;;;;;;;11.57;9.15;;;;;;;11.93;100.00;102314.25;5089179;28;20043;-86
2023/10/01 01:00:28;;;;;;;12.98;8.95;;;;;;;11.91;100.00;102310.00;5083862;28;20067;-88
2023/10/01 01:02:57;;;;;;;10.70;8.63;;;;;;;11.92;100.00;102301.16;5083164;28;20024;-88
2023/10/01 01:05:34;;;;;;;11.63;8.60;;;;;;;11.96;100.00;102299.19;5070123;28;20435;-88
2023/10/01 01:08:07;;;;;;;12.38;8.70;;;;;;;11.92;100.00;102298.50;5089251;28;20225;-87
2023/10/01 01:10:41;;;;;;;13.55;9.15;;;;;;;11.90;100.00;102293.31;5078925;28;20036;-88
2023/10/01 01:13:08;;;;;;;13.27;8.57;;;;;;;11.87;100.00;102282.94;5058028;28;20030;-87
2023/10/01 01:15:38;;;;;;;12.20;8.93;;;;;;;11.82;100.00;102292.06;5047516;28;20397;-88
2023/10/01 01:18:07;;;;;;;13.63;9.07;;;;;;;11.83;100.00;102285.84;5069536;28;20077;-87
2023/10/01 01:20:36;;;;;;;11.45;8.60;;;;;;;11.82;100.00;102285.00;5069727;28;20025;-87
2023/10/01 01:23:04;;;;;;;11.43;9.27;;;;;;;11.80;100.00;102276.34;5049795;28;20078;-87
2023/10/01 01:25:32;;;;;;;12.93;8.52;;;;;;;11.81;100.00;102282.44;5068349;28;20024;-88
2023/10/01 01:27:59;;;;;;;12.63;8.80;;;;;;;11.83;100.00;102286.69;5068777;28;20484;-88
2023/10/01 01:30:29;;;;;;;10.85;8.13;;;;;;;11.85;100.00;102282.19;5067600;28;20067;-87
2023/10/01 01:32:55;;;;;;;11.05;8.40;;;;;;;11.82;100.00;102282.38;5070597;28;20024;-88
2023/10/01 01:35:28;;;;;;;10.77;8.63;;;;;;;11.78;100.00;102280.84;5074993;28;20035;-88
2023/10/01 01:37:58;;;;;;;10.63;8.63;;;;;;;11.79;100.00;102279.91;5093513;28;20020;-88
2023/10/01 01:40:25;;;;;;;12.25;8.43;;;;;;;11.80;100.00;102273.69;5090983;28;20092;-88
2023/10/01 01:42:56;;;;;;;13.82;9.00;;;;;;;11.80;100.00;102276.34;5074324;28;20031;-87
2023/10/01 01:45:33;;;;;;;10.93;8.00;;;;;;;11.78;100.00;102275.56;5067469;28;20044;-88
2023/10/01 01:48:02;;;;;;;14.07;8.55;;;;;;;11.79;100.00;102271.13;5054529;28;20055;-86
2023/10/01 01:50:27;;;;;;;13.57;8.20;;;;;;;11.80;100.00;102267.56;5071760;28;20036;-87
2023/10/01 01:53:03;;;;;;;11.77;8.38;;;;;;;11.81;100.00;102271.91;5072879;28;20029;-88
2023/10/01 01:55:34;;;;;;;12.52;9.30;;;;;;;11.82;100.00;102269.19;5074367;28;20028;-87
2023/10/01 01:58:10;;;;;;;11.73;7.88;;;;;;;11.82;100.00;102274.47;5073887;28;20030;-86
2023/10/01 02:00:46;;;;;;;13.90;7.90;;;;;;;11.86;100.00;102275.13;5093082;28;20495;-86
2023/10/01 02:03:14;;;;;;;11.60;8.20;;;;;;;11.82;100.00;102274.47;5074118;28;20032;-87
2023/10/01 02:05:44;;;;;;;14.35;8.50;;;;;;;11.84;100.00;102277.00;5063574;28;20047;-87
2023/10/01 02:08:23;;;;;;;13.10;8.38;;;;;;;11.82;100.00;102269.19;5083529;28;20082;-83
2023/10/01 02:10:53;;;;;;;13.10;8.32;;;;;;;11.75;100.00;102266.94;5070138;28;20423;-86
2023/10/01 02:13:18;;;;;;;11.80;7.97;;;;;;;11.79;100.00;102260.59;5055155;28;21344;-86
2023/10/01 02:15:45;;;;;;;12.98;8.23;;;;;;;11.75;100.00;102262.53;5090560;28;20031;-86
2023/10/01 02:18:13;;;;;;;11.30;8.05;;;;;;;11.74;100.00;102255.56;5084623;28;20016;-86
2023/10/01 02:20:40;;;;;;;11.73;7.88;;;;;;;11.70;100.00;102251.38;5089734;28;20032;-85
2023/10/01 02:23:12;;;;;;;10.65;8.10;;;;;;;11.66;100.00;102247.22;5078745;28;20548;-87
2023/10/01 02:25:45;;;;;;;12.77;8.77;;;;;;;11.72;100.00;102249.50;5074622;28;20052;-87
2023/10/01 02:28:13;;;;;;;11.18;7.95;;;;;;;11.73;100.00;102245.94;5079250;28;20450;-88
2023/10/01 02:30:44;;;;;;;12.02;8.18;;;;;;;11.69;100.00;102257.59;5080784;28;20029;-87
2023/10/01 02:33:17;;;;;;;10.00;7.75;;;;;;;11.68;100.00;102250.63;5092348;28;20112;-86
2023/10/01 02:35:46;;;;;;;10.88;8.07;;;;;;;11.68;100.00;102249.78;5074741;28;20016;-87
2023/10/01 02:40:57;;;;;;;15.63;8.30;;;;;;;11.65;100.00;102255.22;5075297;28;20101;-87
2023/10/01 02:43:33;;;;;;;12.80;8.10;;;;;;;11.66;100.00;102252.50;5053955;28;20033;-86
2023/10/01 02:45:59;;;;;;;11.98;8.10;;;;;;;11.71;100.00;102246.97;5067272;28;20514;-86
2023/10/01 02:48:26;;;;;;;13.73;7.97;;;;;;;11.61;100.00;102255.41;5071379;28;20024;-87
2023/10/01 02:50:52;;;;;;;14.00;7.88;;;;;;;11.68;100.00;102265.59;5072151;28;20080;-86
2023/10/01 02:53:22;;;;;;;11.88;8.00;;;;;;;11.58;100.00;102266.09;5052268;28;20020;-87
2023/10/01 02:55:51;;;;;;;10.60;7.53;;;;;;;11.65;100.00;102265.78;5067441;28;20032;-87
2023/10/01 02:58:20;;;;;;;11.85;8.38;;;;;;;11.65;100.00;102261.34;5083927;28;20017;-87
2023/10/01 03:00:50;;;;;;;14.10;8.43;;;;;;;11.64;100.00;102264.06;5055923;28;20086;-86
2023/10/01 03:03:17;;;;;;;11.57;7.80;;;;;;;11.59;100.00;102266.94;5091719;28;20372;-86
2023/10/01 03:05:46;;;;;;;11.95;7.85;;;;;;;11.54;100.00;102264.56;5073696;28;20052;-87
2023/10/01 03:11:02;;;;;;;12.15;7.75;;;;;;;11.56;100.00;102259.19;5084385;28;20038;-86
2023/10/01 03:13:30;;;;;;;10.68;7.85;;;;;;;11.54;100.00;102253.16;5070118;28;20035;-87
2023/10/01 03:19:13;;;;;;;10.43;7.53;;;;;;;11.59;100.00;102248.47;5049630;28;20428;-86
2023/10/01 03:24:25;;;;;;;14.27;8.15;;;;;;;11.58;100.00;102254.69;5058927;28;20052;-88
2023/10/01 03:26:50;;;;;;;13.32;8.05;;;;;;;11.56;100.00;102261.84;5073598;28;20028;-88
2023/10/01 03:29:19;;;;;;;11.88;8.25;;;;;;;11.53;100.00;102260.22;5068531;28;20422;-87
2023/10/01 03:31:46;;;;;;;13.30;8.15;;;;;;;11.54;100.00;102258.44;5066905;28;20085;-87
2023/10/01 03:34:28;;;;;;;9.80;7.47;;;;;;;11.56;100.00;102256.56;5076308;28;20050;-87
2023/10/01 03:36:58;;;;;;;13.10;8.40;;;;;;;11.50;100.00;102262.19;5073255;28;20027;-86
2023/10/01 03:39:28;;;;;;;11.90;8.13;;;;;;;11.50;100.00;102262.19;5091105;28;20026;-85
2023/10/01 03:42:03;;;;;;;11.52;7.80;;;;;;;11.52;100.00;102252.41;5069705;28;20067;-87
2023/10/01 03:47:19;;;;;;;12.38;8.35;;;;;;;11.46;100.00;102244.84;5071077;28;20198;-86
2023/10/01 03:49:44;;;;;;;12.57;8.73;;;;;;;11.49;100.00;102245.50;5068802;28;20020;-87
2023/10/01 03:52:20;;;;;;;12.85;9.07;;;;;;;11.44;100.00;102246.69;5074650;28;20102;-87
2023/10/01 03:57:30;;;;;;;13.27;7.75;;;;;;;11.48;100.00;102246.44;5082897;28;20036;-86
2023/10/01 03:59:57;;;;;;;12.05;8.60;;;;;;;11.46;100.00;102243.03;5080418;28;20012;-85
2023/10/01 04:05:28;;;;;;;12.20;8.15;;;;;;;11.42;100.00;102248.56;5070910;28;20039;-85
2023/10/01 04:07:54;;;;;;;12.23;7.93;;;;;;;11.43;100.00;102239.72;5083507;28;20047;-87
2023/10/01 04:12:54;;;;;;;13.40;8.15;;;;;;;11.45;100.00;102241.34;5081806;28;20468;-85
2023/10/01 04:15:30;;;;;;;10.43;7.90;;;;;;;11.43;100.00;102240.59;5056151;28;20036;-86
2023/10/01 04:18:19;;;;;;;14.20;8.10;;;;;;;11.49;100.00;102234.13;5071512;28;20549;-86
2023/10/01 04:20:49;;;;;;;13.95;8.75;;;;;;;11.49;100.00;102239.38;5090063;28;20028;-87
2023/10/01 04:23:30;;;;;;;13.55;8.73;;;;;;;11.46;100.00;102239.56;5049137;28;20552;-87
2023/10/01 04:26:00;;;;;;;15.15;8.43;;;;;;;11.48;100.00;102242.97;5050486;28;20024;-85
2023/10/01 04:28:27;;;;;;;15.77;8.63;;;;;;;11.41;100.00;102247.72;5071636;28;20031;-85
2023/10/01 04:30:52;;;;;;;12.07;8.15;;;;;;;11.46;100.00;102239.56;5085202;28;20020;-85
2023/10/01 04:33:23;;;;;;;12.55;8.23;;;;;;;11.41;100.00;102241.59;5081904;28;20395;-86
2023/10/01 04:35:56;;;;;;;14.57;8.43;;;;;;;11.43;100.00;102235.31;5061014;28;20031;-85
2023/10/01 04:38:22;;;;;;;10.43;8.23;;;;;;;11.45;100.00;102237.88;5049503;28;20013;-85
2023/10/01 04:40:49;;;;;;;15.07;8.88;;;;;;;11.43;100.00;102230.03;5057157;28;20099;-84
2023/10/01 04:43:20;;;;;;;14.55;8.93;;;;;;;11.40;100.00;102229.38;5090697;28;20102;-87
2023/10/01 04:45:46;;;;;;;12.68;8.68;;;;;;;11.42;100.00;102232.75;5065897;28;20554;-87
2023/10/01 04:48:16;;;;;;;13.10;8.35;;;;;;;11.42;100.00;102238.03;5086020;28;20028;-86
2023/10/01 04:50:43;;;;;;;14.38;8.88;;;;;;;11.40;100.00;102245.19;5078795;28;20083;-86
2023/10/01 04:53:13;;;;;;;12.48;8.57;;;;;;;11.39;100.00;102243.47;5072912;28;20111;-84
2023/10/01 04:55:42;;;;;;;14.40;9.25;;;;;;;11.36;100.00;102244.50;5084227;28;20052;-84
2023/10/01 04:58:12;;;;;;;14.00;8.68;;;;;;;11.41;100.00;102249.50;5088327;28;20594;-85
2023/10/01 05:00:44;;;;;;;13.00;8.48;;;;;;;11.41;100.00;102241.59;5085151;28;20031;-85
2023/10/01 05:03:10;;;;;;;10.80;8.32;;;;;;;11.39;100.00;102243.47;5066721;28;20400;-85
2023/10/01 05:05:37;;;;;;;12.30;8.63;;;;;;;11.42;100.00;102238.03;5071835;28;20020;-85
2023/10/01 05:08:07;;;;;;;14.18;8.88;;;;;;;11.38;100.00;102245.25;5059648;28;20043;-85
2023/10/01 05:10:50;;;;;;;14.15;8.52;;;;;;;11.37;100.00;102250.63;5036470;28;20125;-85
2023/10/01 05:13:20;;;;;;;13.25;8.35;;;;;;;11.41;100.00;102246.88;5049723;28;20336;-86
2023/10/01 05:15:49;;;;;;;12.27;8.68;;;;;;;11.37;100.00;102240.94;5074850;28;20076;-87
2023/10/01 05:18:17;;;;;;;14.77;9.25;;;;;;;11.32;100.00;102242.97;5049654;28;20025;-87
2023/10/01 05:20:43;;;;;;;14.30;9.10;;;;;;;11.32;100.00;102242.97;5048420;28;20029;-86
2023/10/01 05:23:09;;;;;;;14.02;8.85;;;;;;;11.33;100.00;102244.66;5031285;28;20580;-85
2023/10/01 05:25:34;;;;;;;12.85;8.52;;;;;;;11.34;100.00;102249.00;5035632;28;20020;-85
2023/10/01 05:28:03;;;;;;;14.05;9.20;;;;;;;11.32;100.00;102242.97;5059079;28;20610;-86
2023/10/01 05:30:39;;;;;;;14.07;8.63;;;;;;;11.30;100.00;102260.66;5086850;28;20031;-85
2023/10/01 05:33:06;;;;;;;14.88;9.38;;;;;;;11.34;100.00;102251.63;5060892;28;20411;-86
2023/10/01 05:35:47;;;;;;;11.10;8.52;;;;;;;11.30;100.00;102266.78;5050963;28;20024;-85
2023/10/01 05:38:14;;;;;;;13.43;9.02;;;;;;;11.29;100.00;102258.94;5051571;28;20021;-86
2023/10/01 05:40:40;;;;;;;16.17;9.23;;;;;;;11.32;100.00;102257.94;5078545;28;20032;-86
2023/10/01 05:43:13;;;;;;;12.20;8.63;;;;;;;11.33;100.00;102264.91;5078660;28;20499;-84
2023/10/01 05:45:52;;;;;;;14.27;9.35;;;;;;;11.33;100.00;102270.16;5068148;28;20052;-84
2023/10/01 05:48:23;;;;;;;13.10;8.30;;;;;;;11.33;100.00;102280.72;5048544;28;20491;-85
2023/10/01 05:50:49;;;;;;;15.77;9.25;;;;;;;11.32;100.00;102281.63;5078504;28;20544;-86
2023/10/01 05:53:17;;;;;;;16.67;8.93;;;;;;;11.32;100.00;102269.31;5071821;28;20086;-85
2023/10/01 05:55:44;;;;;;;17.45;9.52;;;;;;;11.34;100.00;102270.09;5060609;28;20052;-86
2023/10/01 05:58:13;;;;;;;18.27;8.63;;;;;;;11.34;100.00;102261.31;5068420;28;20025;-85
2023/10/01 06:00:56;;;;;;;16.38;9.07;;;;;;;11.34;100.00;102253.41;5068854;28;20034;-85
2023/10/01 06:03:23;;;;;;;14.10;8.68;;;;;;;11.34;100.00;102250.78;5055412;28;20029;-85
2023/10/01 06:05:58;;;;;;;14.68;9.38;;;;;;;11.38;100.00;102257.59;5079720;28;20038;-85
2023/10/01 06:08:44;;;;;;;17.20;9.63;;;;;;;11.37;100.00;102255.88;5063502;28;20037;-85
2023/10/01 06:11:13;;;;;;;14.27;8.73;;;;;;;11.39;100.00;102256.66;5076610;28;20100;-86
2023/10/01 06:13:49;;;;;;;15.25;8.88;;;;;;;11.44;100.00;102267.78;5069703;28;20051;-85
2023/10/01 06:16:16;;;;;;;16.85;9.43;;;;;;;11.46;100.00;102268.56;5072206;28;20036;-84
2023/10/01 06:18:56;;;;;;;12.93;9.13;;;;;;;11.49;100.00;102271.00;5061573;28;20016;-85
2023/10/01 06:21:26;;;;;;;15.38;9.07;;;;;;;11.47;100.00;102263.19;5085347;28;20534;-84
2023/10/01 06:23:53;;;;;;;14.68;8.90;;;;;;;11.50;100.00;102263.03;5071566;28;20032;-84
2023/10/01 06:26:22;;;;;;;14.57;9.23;;;;;;;11.52;100.00;102268.22;5081434;28;20029;-84
2023/10/01 06:28:49;;;;;;;15.05;9.50;;;;;;;11.56;100.00;102261.84;5065109;28;20016;-84
2023/10/01 06:31:20;;;;;;;15.05;9.05;;;;;;;11.60;100.00;102263.38;5052057;28;20076;-84
2023/10/01 06:33:53;;;;;;;15.00;9.38;;;;;;;11.66;100.00;102256.91;5072389;28;20500;-86
2023/10/01 06:36:37;;;;;;;14.45;8.70;;;;;;;11.70;100.00;102254.03;5072332;28;20028;-84
2023/10/01 06:39:03;;;;;;;14.40;9.43;;;;;;;11.77;100.00;102263.28;5051636;28;20029;-83
2023/10/01 06:41:29;;;;;;;14.25;8.90;;;;;;;11.78;100.00;102261.53;5054459;28;20146;-83
2023/10/01 06:44:01;;;;;;;14.88;8.90;;;;;;;11.86;100.00;102257.53;5080961;28;20383;-83
2023/10/01 06:46:29;;;;;;;19.17;9.18;;;;;;;11.96;100.00;102249.06;5057245;28;20127;-85
2023/10/01 06:48:58;;;;;;;17.88;9.30;;;;;;;12.01;100.00;102249.66;5077844;28;20025;-85
2023/10/01 06:51:37;;;;;;;15.35;9.30;;;;;;;12.08;100.00;102258.94;5080952;28;20028;-85
2023/10/01 06:54:05;;;;;;;14.45;9.02;;;;;;;12.14;100.00;102254.16;5067152;28;20020;-83
2023/10/01 06:56:50;;;;;;;13.38;8.50;;;;;;;12.20;100.00;102242.41;5072302;28;20032;-85
2023/10/01 06:59:17;;;;;;;14.23;9.10;;;;;;;12.29;100.00;102244.47;5071680;28;20103;-85
2023/10/01 07:04:11;;;;;;;17.20;9.55;;;;;;;12.47;100.00;102251.34;5068902;28;20044;-84
2023/10/01 07:06:37;;;;;;;16.88;9.55;;;;;;;12.55;100.00;102254.38;5075905;28;20036;-85
2023/10/01 07:09:06;;;;;;;14.73;9.27;;;;;;;12.68;100.00;102237.78;5072195;28;20055;-84
2023/10/01 07:11:33;;;;;;;15.55;9.07;;;;;;;12.79;100.00;102240.59;5073540;28;20066;-84
2023/10/01 07:14:01;;;;;;;16.67;9.70;;;;;;;12.90;100.00;102246.09;5088482;28;20028;-85
2023/10/01 07:16:36;;;;;;;13.80;9.50;;;;;;;12.98;100.00;102240.34;5084868;28;20361;-84
2023/10/01 07:19:04;;;;;;;14.93;9.50;;;;;;;13.12;100.00;102251.75;5068533;28;20055;-84
2023/10/01 07:21:31;;;;;;;16.65;9.48;;;;;;;13.24;100.00;102254.63;5062155;28;20028;-85
2023/10/01 07:23:58;;;;;;;13.25;9.15;;;;;;;13.30;100.00;102263.00;5077218;28;20389;-83
2023/10/01 07:26:24;;;;;;;15.98;9.10;;;;;;;13.36;100.00;102261.78;5073532;28;20174;-84
2023/10/01 07:28:55;;;;;;;15.77;9.10;;;;;;;13.48;100.00;102250.41;5086686;28;20103;-84
2023/10/01 07:31:24;;;;;;;13.93;8.47;;;;;;;13.56;100.00;102260.50;5080739;28;20111;-85
2023/10/01 07:33:53;;;;;;;14.27;8.80;;;;;;;13.69;100.00;102264.06;5070863;28;20373;-85
2023/10/01 07:36:20;;;;;;;14.77;8.98;;;;;;;13.75;100.00;102259.22;5054046;28;20378;-85
2023/10/01 07:38:56;;;;;;;16.02;9.27;;;;;;;13.85;100.00;102255.97;5061961;28;20020;-85
2023/10/01 07:41:24;;;;;;;12.80;8.55;;;;;;;13.99;100.00;102261.22;5056438;28;20477;-84
2023/10/01 07:43:53;;;;;;;14.75;8.65;;;;;;;14.06;100.00;102270.47;5088759;28;20069;-84
2023/10/01 07:46:19;;;;;;;16.63;9.13;;;;;;;14.17;100.00;102267.94;5084698;28;20524;-85
2023/10/01 07:48:48;;;;;;;13.30;8.38;;;;;;;14.30;100.00;102268.81;5055952;28;20147;-84
2023/10/01 07:51:26;;;;;;;17.92;9.10;;;;;;;14.40;100.00;102271.69;5062099;28;20082;-86
2023/10/01 07:53:52;;;;;;;16.65;8.80;;;;;;;14.56;100.00;102277.72;5075538;28;20039;-85
2023/10/01 07:56:21;;;;;;;14.60;9.18;;;;;;;14.69;100.00;102283.00;5072503;28;20024;-86
2023/10/01 07:58:48;;;;;;;24.73;9.63;;;;;;;14.81;100.00;102271.59;5069308;28;20439;-85
2023/10/01 08:07:15;;;;;;;13.63;8.65;;;;;;;15.27;99.13;102269.22;5028314;28;20564;-85
2023/10/01 08:09:40;;;;;;;15.35;8.75;;;;;;;15.51;98.28;102265.75;5051783;28;20112;-85
2023/10/01 08:12:12;;;;;;;14.55;8.90;;;;;;;15.61;97.10;102262.38;5071680;28;20025;-84
2023/10/01 08:14:40;;;;;;;16.15;8.65;;;;;;;15.82;96.85;102248.47;5083030;28;20469;-84
2023/10/01 08:17:07;;;;;;;13.88;9.13;;;;;;;15.95;96.95;102251.91;5055482;28;20106;-85
2023/10/01 08:19:56;;;;;;;15.82;9.23;;;;;;;16.00;94.79;102265.69;5068485;28;20478;-85
2023/10/01 08:22:43;;;;;;;16.98;8.25;;;;;;;16.24;95.86;102263.03;5055588;28;20039;-87
2023/10/01 08:25:12;;;;;;;13.65;8.43;;;;;;;16.42;93.62;102272.28;5050419;28;20025;-88
2023/10/01 08:28:08;;;;;;;17.58;9.88;;;;;;;16.66;93.02;102274.88;5069854;28;20115;-86
2023/10/01 08:30:38;;;;;;;16.65;9.48;;;;;;;16.78;92.27;102276.59;5087150;28;20067;-88
2023/10/01 08:33:22;;;;;;;15.48;9.10;;;;;;;16.92;90.93;102284.38;5090545;28;20028;-86
2023/10/01 08:35:57;;;;;;;14.30;9.00;;;;;;;17.10;91.74;102286.53;5074357;28;20024;-84
2023/10/01 08:38:29;;;;;;;15.82;9.25;;;;;;;17.28;90.65;102285.09;5089974;28;20395;-87
2023/10/01 08:41:00;;;;;;;15.30;9.23;;;;;;;17.42;89.02;102284.00;5089141;28;20108;-86
2023/10/01 08:44:08;;;;;;;14.35;8.95;;;;;;;17.60;88.64;102284.31;5090461;28;20404;-84
2023/10/01 08:46:19;;;;;;;12.80;8.50;;;;;;;17.81;88.00;102277.28;5089034;28;20048;-85
2023/10/01 08:48:45;;;;;;;13.63;8.43;;;;;;;17.96;87.05;102273.38;5090999;28;20020;-87
2023/10/01 08:51:12;;;;;;;15.75;8.50;;;;;;;18.11;85.52;102289.91;5090392;28;20020;-86
2023/10/01 08:53:41;;;;;;;15.98;9.70;;;;;;;18.07;83.71;102281.34;5089678;28;20049;-87
2023/10/01 08:56:13;;;;;;;17.35;9.18;;;;;;;18.10;85.50;102267.75;5072298;28;20032;-84
2023/10/01 08:58:49;;;;;;;15.05;8.68;;;;;;;18.33;85.19;102279.13;5070039;28;20489;-84
2023/10/01 09:01:20;;;;;;;16.20;9.52;;;;;;;18.46;84.06;102279.81;5052938;28;20473;-87
2023/10/01 09:03:51;;;;;;;20.42;9.07;;;;;;;18.61;83.34;102283.00;5070901;28;20020;-88
2023/10/01 09:06:24;;;;;;;14.57;8.95;;;;;;;18.69;82.33;102280.53;5069785;28;20068;-84
2023/10/01 09:08:54;;;;;;;;;;;;;;;18.96;87.50;102287.16;5070837;28;20071;-86
2023/10/01 09:11:32;;;;;;;16.35;9.48;;;;;;;19.04;82.25;102280.19;5070530;28;19962;-90
2023/10/01 09:13:58;;;;;;;14.25;9.50;;;;;;;19.05;80.89;102275.69;5069785;28;20029;-85
2023/10/01 09:16:33;;;;;;;15.70;8.93;;;;;;;19.18;82.35;102281.63;5070604;28;20107;-84
2023/10/01 09:19:30;;;;;;;15.95;9.32;;;;;;;19.23;82.37;102268.75;5077733;28;20035;-87
2023/10/01 09:21:55;;;;;;;14.82;9.05;;;;;;;19.54;80.24;102274.06;5063974;28;20025;-87
2023/10/01 09:24:38;;;;;;;15.18;9.27;;;;;;;19.61;80.70;102264.50;5065188;28;20033;-84
2023/10/01 09:27:18;;;;;;;13.70;8.80;;;;;;;19.77;79.50;102259.50;5070557;28;20434;-90
2023/10/01 09:29:45;;;;;;;15.27;9.05;;;;;;;20.00;78.06;102252.88;5052523;28;20066;-83
2023/10/01 09:32:13;;;;;;;14.07;8.77;;;;;;;20.52;76.77;102253.47;5071234;28;20021;-88
2023/10/01 09:34:53;;;;;;;16.40;8.98;;;;;;;21.39;73.33;102245.13;5070168;28;20473;-84
2023/10/01 09:37:35;;;;;;;14.93;8.85;;;;;;;22.40;69.51;102237.69;5051999;28;20480;-86
2023/10/01 09:43:03;;;;;;;13.95;8.90;;;;;;;24.10;63.92;102240.25;5050867;28;20175;-88
2023/10/01 09:45:39;;;;;;;14.68;8.48;;;;;;;24.59;60.64;102241.06;5049892;28;20053;-84
2023/10/01 09:48:10;;;;;;;14.10;7.97;;;;;;;25.13;57.11;102243.09;5049766;28;20029;-86
2023/10/01 09:50:42;;;;;;;15.25;8.63;;;;;;;25.56;53.88;102245.22;5054612;28;20025;-84
2023/10/01 09:53:24;;;;;;;14.52;8.40;;;;;;;26.99;56.23;102240.81;5059408;28;20025;-87
2023/10/01 09:55:55;;;;;;;15.27;8.27;;;;;;;27.25;49.69;102243.03;5106071;28;20039;-85
2023/10/01 09:58:24;;;;;;;14.18;8.65;;;;;;;27.78;49.15;102235.53;5080880;28;20012;-88
2023/10/01 10:01:01;;;;;;;14.32;8.45;;;;;;;28.38;48.33;102234.19;5086614;28;20046;-89
2023/10/01 10:03:37;;;;;;;13.13;7.85;;;;;;;27.91;46.79;102227.53;5099014;28;20017;-90
2023/10/01 10:06:09;;;;;;;12.52;7.63;;;;;;;28.39;46.30;102222.31;5079473;28;20435;-84
2023/10/01 10:08:39;;;;;;;12.73;8.25;;;;;;;27.50;48.19;102229.16;5057726;28;20086;-84
2023/10/01 10:11:24;;;;;;;14.32;8.43;;;;;;;26.22;50.35;102229.44;5082004;28;20035;-88
2023/10/01 10:13:50;;;;;;;13.70;8.00;;;;;;;25.19;53.64;102235.16;5082046;28;20008;-89
2023/10/01 10:16:32;;;;;;;13.02;8.48;;;;;;;24.48;56.17;102233.34;5086494;28;20052;-89
2023/10/01 10:19:23;;;;;;;14.23;8.38;;;;;;;24.43;59.19;102234.88;5064487;28;20017;-88
2023/10/01 10:24:46;;;;;;;16.75;8.30;;;;;;;24.36;60.02;102224.78;5064262;28;20039;-85
2023/10/01 10:27:54;;;;;;;15.73;8.85;;;;;;;24.18;60.80;102220.56;5069578;28;20009;-88
2023/10/01 10:30:41;;;;;;;16.23;8.57;;;;;;;23.74;61.65;102210.97;5118237;28;20055;-88
2023/10/01 10:33:15;;;;;;;15.10;8.40;;;;;;;23.33;62.26;102220.78;5118254;28;20020;-89
2023/10/01 10:35:48;;;;;;;13.35;8.20;;;;;;;23.06;63.32;102219.16;5117882;28;20053;-88
2023/10/01 10:38:51;;;;;;;12.82;8.38;;;;;;;22.97;65.70;102209.41;5118034;28;20016;-90
2023/10/01 10:41:16;;;;;;;;;;;;;;;23.13;66.47;102214.81;5107778;28;20044;-88
2023/10/01 10:44:08;;;;;;;15.45;8.77;;;;;;;22.77;67.59;102202.53;5085506;28;19909;-84
2023/10/01 10:47:01;;;;;;;16.23;8.45;;;;;;;22.68;66.68;102208.88;5098082;28;20040;-88
2023/10/01 10:49:49;;;;;;;13.52;8.52;;;;;;;22.46;67.32;102227.22;5096279;28;20032;-81
2023/10/01 10:52:32;;;;;;;17.15;8.32;;;;;;;22.44;67.85;102212.28;5096450;28;20035;-83
2023/10/01 10:55:15;;;;;;;17.33;8.25;;;;;;;22.54;68.07;102206.78;5106554;28;20018;-88
2023/10/01 10:57:48;;;;;;;12.48;7.75;;;;;;;22.74;68.43;102218.97;5118065;28;20019;-89
2023/10/01 11:00:24;;;;;;;12.30;8.02;;;;;;;22.75;66.51;102209.91;5088139;28;20021;-90
2023/10/01 11:02:56;;;;;;;14.07;8.48;;;;;;;22.77;65.78;102207.91;5076234;28;20081;-83
2023/10/01 11:05:33;;;;;;;14.55;8.68;;;;;;;22.70;65.32;102207.72;5075269;28;20048;-83
2023/10/01 11:07:59;;;;;;;12.52;8.00;;;;;;;22.77;66.19;102207.91;5076939;28;20029;-88
2023/10/01 11:10:47;;;;;;;13.90;8.52;;;;;;;22.78;66.59;102214.97;5074551;28;20033;-88
2023/10/01 11:13:13;;;;;;;15.25;8.65;;;;;;;22.76;64.53;102211.59;5054276;28;20051;-89
2023/10/01 11:15:40;;;;;;;13.68;8.25;;;;;;;22.83;65.75;102211.84;5054683;28;20048;-84
2023/10/01 11:18:09;;;;;;;13.93;8.52;;;;;;;22.92;65.29;102200.16;5057313;28;20087;-88
2023/10/01 11:20:44;;;;;;;13.13;8.35;;;;;;;23.01;65.32;102208.06;5073531;28;20717;-85
2023/10/01 11:23:16;;;;;;;14.40;8.27;;;;;;;23.08;65.15;102198.34;5073737;28;20024;-88
2023/10/01 11:25:47;;;;;;;15.52;8.77;;;;;;;23.15;64.52;102195.84;5072474;28;20063;-88
2023/10/01 11:28:13;;;;;;;14.13;8.35;;;;;;;23.04;64.25;102190.78;5074139;28;20058;-89
2023/10/01 11:30:42;;;;;;;14.23;8.50;;;;;;;23.03;63.92;102187.25;5093815;28;20233;-83
2023/10/01 11:36:09;;;;;;;14.95;8.10;;;;;;;23.08;66.87;102184.94;5090254;28;20036;-84
2023/10/01 11:38:39;;;;;;;15.60;8.50;;;;;;;23.30;64.21;102182.66;5062279;28;20020;-87
2023/10/01 11:41:10;;;;;;;14.45;8.32;;;;;;;23.25;63.88;102185.00;5077055;28;20206;-87
2023/10/01 11:43:42;;;;;;;14.80;8.25;;;;;;;23.37;64.27;102183.69;5063049;28;20169;-85
2023/10/01 11:46:27;;;;;;;14.68;8.35;;;;;;;23.49;65.68;102165.38;5091757;28;20048;-89
2023/10/01 11:49:15;;;;;;;13.10;8.30;;;;;;;23.54;66.16;102174.63;5073611;28;20040;-83
2023/10/01 11:51:46;;;;;;;16.08;8.63;;;;;;;23.67;63.52;102168.81;5085362;28;20075;-83
2023/10/01 11:54:25;;;;;;;15.75;8.57;;;;;;;23.86;64.34;102168.47;5071799;28;20036;-84
2023/10/01 11:57:07;;;;;;;16.67;9.25;;;;;;;23.88;63.71;102171.84;5079687;28;20051;-85
2023/10/01 11:59:36;;;;;;;15.13;8.82;;;;;;;23.91;61.40;102163.44;5052563;28;20031;-84
2023/10/01 12:04:51;;;;;;;16.50;9.02;;;;;;;23.69;61.45;102151.50;5091761;28;20513;-84
2023/10/01 12:07:16;;;;;;;14.45;8.23;;;;;;;23.68;62.46;102149.00;5070202;28;20031;-84
2023/10/01 12:09:53;;;;;;;15.05;9.20;;;;;;;23.78;61.15;102141.59;5090161;28;20028;-83
2023/10/01 12:12:39;;;;;;;14.10;8.70;;;;;;;23.80;62.09;102138.75;5087962;28;20115;-90
2023/10/01 12:17:50;;;;;;;14.88;9.00;;;;;;;23.76;61.13;102140.94;5079762;28;20062;-83